Time;durP1;ratioP1;P1;durP2;ratioP2;P2;SDS_P1;SDS_P2;PMS_P1;PMS_P2;Temp;Humidity;BMP_temperature;BMP_pressure;BME280_temperature;BME280_humidity;BME280_pressure;Samples;Min_cycle;Max_cycle;Signal;HPM_P1;HPM_P2
2022/07/26 00:01:21;;;;;;;2.80;2.53;;;23.50;84.20;;;;;;5028831;28;20494;-69
2022/07/26 00:03:49;;;;;;;4.33;3.10;;;23.50;85.00;;;;;;5029075;28;20178;-69
2022/07/26 00:06:14;;;;;;;4.40;2.80;;;23.50;85.80;;;;;;5030017;28;20443;-69
2022/07/26 00:08:40;;;;;;;3.90;2.90;;;23.50;85.30;;;;;;5026479;28;20445;-69
2022/07/26 00:11:06;;;;;;;5.40;2.73;;;23.40;86.00;;;;;;5029729;28;20190;-69
2022/07/26 00:13:32;;;;;;;2.90;2.43;;;23.40;86.80;;;;;;5027770;28;20213;-69
2022/07/26 00:15:57;;;;;;;4.00;2.60;;;23.40;86.80;;;;;;5029649;28;20181;-69
2022/07/26 00:18:23;;;;;;;3.43;2.50;;;23.40;87.80;;;;;;5026662;28;20437;-69
2022/07/26 00:20:49;;;;;;;2.27;2.13;;;23.40;88.10;;;;;;5030697;28;20198;-69
2022/07/26 00:23:14;;;;;;;4.07;2.90;;;23.40;89.30;;;;;;5028507;28;20193;-69
2022/07/26 00:25:40;;;;;;;2.60;2.40;;;23.40;89.10;;;;;;5030188;28;20183;-69
2022/07/26 00:28:06;;;;;;;2.73;2.30;;;23.40;89.20;;;;;;5022137;28;20182;-69
2022/07/26 00:30:32;;;;;;;3.90;2.57;;;23.50;90.10;;;;;;5029871;28;20218;-69
2022/07/26 00:32:58;;;;;;;4.07;2.50;;;23.50;90.30;;;;;;5029831;28;20206;-69
2022/07/26 00:35:23;;;;;;;2.50;2.30;;;23.50;90.40;;;;;;5027969;28;20198;-69
2022/07/26 00:37:49;;;;;;;3.50;2.60;;;23.60;91.10;;;;;;5029570;28;20217;-69
2022/07/26 00:40:15;;;;;;;2.33;2.00;;;23.60;90.90;;;;;;5031383;28;20206;-69
2022/07/26 00:42:40;;;;;;;2.40;2.30;;;23.60;90.90;;;;;;5029952;28;20178;-69
2022/07/26 00:45:07;;;;;;;4.70;2.37;;;23.70;91.50;;;;;;5035573;28;20233;-69
2022/07/26 00:47:33;;;;;;;2.57;2.10;;;23.60;91.30;;;;;;5028349;28;20213;-69
2022/07/26 00:49:59;;;;;;;5.40;2.50;;;23.50;91.50;;;;;;5032000;28;20488;-69
2022/07/26 00:52:24;;;;;;;3.83;2.27;;;23.70;91.80;;;;;;5027869;28;20178;-69
2022/07/26 00:54:53;;;;;;;2.40;1.80;;;23.60;92.20;;;;;;5026630;28;20739;-69
2022/07/26 00:57:20;;;;;;;3.37;2.13;;;23.60;92.70;;;;;;5027883;28;20182;-69
2022/07/26 00:59:46;;;;;;;2.60;2.00;;;23.60;92.90;;;;;;5027246;28;20492;-69
2022/07/26 01:02:12;;;;;;;2.30;2.17;;;23.60;93.10;;;;;;5030093;28;20480;-69
2022/07/26 01:04:37;;;;;;;2.37;2.10;;;23.60;93.20;;;;;;5026767;28;20440;-69
2022/07/26 01:07:04;;;;;;;1.83;1.70;;;23.50;93.90;;;;;;5029193;28;20240;-69
2022/07/26 01:09:29;;;;;;;1.90;1.77;;;23.50;94.10;;;;;;5022156;28;20292;-69
2022/07/26 01:11:55;;;;;;;1.60;1.50;;;23.50;94.50;;;;;;5029755;28;20934;-69
2022/07/26 01:14:22;;;;;;;1.87;1.60;;;23.50;95.00;;;;;;5027015;28;21476;-69
2022/07/26 01:16:48;;;;;;;2.70;2.10;;;23.50;95.60;;;;;;5029582;28;20547;-69
2022/07/26 01:19:14;;;;;;;6.90;2.27;;;23.60;95.50;;;;;;5023762;28;20457;-69
2022/07/26 01:21:40;;;;;;;2.57;2.10;;;23.70;95.30;;;;;;5024335;28;20444;-69
2022/07/26 01:24:06;;;;;;;3.20;2.00;;;23.60;95.50;;;;;;5030435;28;20263;-69
2022/07/26 01:26:32;;;;;;;5.00;2.67;;;23.60;96.40;;;;;;5028401;28;20186;-69
2022/07/26 01:28:58;;;;;;;5.13;2.07;;;23.30;97.90;;;;;;5025704;28;20242;-69
2022/07/26 01:31:24;;;;;;;3.37;2.20;;;23.20;99.80;;;;;;5029425;28;20468;-69
2022/07/26 01:33:50;;;;;;;3.50;2.10;;;23.10;99.90;;;;;;5025242;28;20210;-69
2022/07/26 01:36:16;;;;;;;2.90;2.50;;;22.90;99.90;;;;;;5031462;28;20475;-69
2022/07/26 01:38:42;;;;;;;2.13;1.93;;;22.80;99.90;;;;;;5025690;28;20953;-69
2022/07/26 01:41:08;;;;;;;5.90;2.60;;;22.60;99.90;;;;;;5029472;28;20258;-69
2022/07/26 01:43:34;;;;;;;1.70;1.60;;;22.60;99.90;;;;;;5029961;28;20480;-69
2022/07/26 01:45:59;;;;;;;1.50;1.40;;;22.60;99.90;;;;;;5012102;28;20935;-69
2022/07/26 01:48:25;;;;;;;1.93;1.73;;;22.70;99.90;;;;;;5027796;28;20518;-69
2022/07/26 01:50:51;;;;;;;1.90;1.73;;;22.80;99.90;;;;;;5031586;28;20194;-69
2022/07/26 01:53:16;;;;;;;2.40;2.00;;;22.70;99.90;;;;;;5027659;28;20185;-69
2022/07/26 01:55:42;;;;;;;2.27;2.07;;;22.70;99.90;;;;;;5028794;28;20205;-69
2022/07/26 01:58:07;;;;;;;2.50;1.87;;;22.60;99.90;;;;;;5027442;28;20194;-69
2022/07/26 02:00:34;;;;;;;2.60;2.23;;;22.70;99.90;;;;;;5028632;28;20285;-69
2022/07/26 02:03:00;;;;;;;2.27;2.17;;;22.70;99.90;;;;;;5030299;28;20186;-69
2022/07/26 02:05:26;;;;;;;1.90;1.80;;;22.60;99.90;;;;;;5031945;28;20445;-69
2022/07/26 02:07:51;;;;;;;2.10;2.00;;;22.60;99.90;;;;;;5032448;28;20257;-69
2022/07/26 02:10:17;;;;;;;2.30;2.20;;;22.60;99.90;;;;;;5030499;28;20547;-69
2022/07/26 02:12:43;;;;;;;1.90;1.67;;;22.60;99.90;;;;;;5031569;28;20232;-69
2022/07/26 02:15:10;;;;;;;2.00;1.90;;;22.60;99.90;;;;;;5031793;28;20217;-69
2022/07/26 02:17:35;;;;;;;2.90;1.80;;;22.70;99.90;;;;;;5033117;28;20269;-69
2022/07/26 02:20:01;;;;;;;2.40;1.73;;;22.70;99.90;;;;;;5031645;28;20547;-69
2022/07/26 02:22:27;;;;;;;2.30;2.10;;;22.70;99.90;;;;;;5031835;28;20240;-69
2022/07/26 02:24:52;;;;;;;2.27;2.17;;;22.70;99.90;;;;;;5027583;28;20242;-69
2022/07/26 02:27:19;;;;;;;1.87;1.77;;;22.70;99.90;;;;;;5030636;28;20186;-69
2022/07/26 02:29:45;;;;;;;3.20;2.23;;;22.60;99.90;;;;;;5026077;28;20249;-69
2022/07/26 02:32:10;;;;;;;2.20;2.00;;;22.70;99.90;;;;;;5037039;28;20990;-69
2022/07/26 02:34:36;;;;;;;2.60;2.17;;;22.60;99.90;;;;;;5028733;28;20303;-69
2022/07/26 02:37:02;;;;;;;2.60;1.90;;;22.40;99.90;;;;;;5031243;28;20213;-69
2022/07/26 02:39:28;;;;;;;1.33;1.23;;;22.40;99.90;;;;;;5029833;28;20224;-69
2022/07/26 02:41:58;;;;;;;1.90;1.80;;;22.50;99.90;;;;;;5031473;28;20452;-69
2022/07/26 02:44:25;;;;;;;2.33;1.70;;;22.50;99.90;;;;;;5032212;28;20178;-69
2022/07/26 02:46:51;;;;;;;1.50;1.40;;;22.60;99.90;;;;;;5031126;28;20441;-69
2022/07/26 02:49:18;;;;;;;2.83;1.93;;;22.70;99.90;;;;;;5031235;28;20468;-69
2022/07/26 02:51:44;;;;;;;2.83;1.80;;;22.80;99.90;;;;;;5026718;28;20804;-69
2022/07/26 02:54:09;;;;;;;2.07;1.87;;;22.70;99.90;;;;;;5032686;28;20518;-69
2022/07/26 02:56:35;;;;;;;2.37;1.93;;;22.70;99.90;;;;;;5031920;28;20507;-69
2022/07/26 02:59:00;;;;;;;2.40;2.10;;;22.70;99.90;;;;;;5029238;28;20213;-69
2022/07/26 03:01:26;;;;;;;3.10;1.80;;;22.70;99.90;;;;;;5028939;28;20806;-69
2022/07/26 03:03:51;;;;;;;2.57;2.37;;;22.60;99.90;;;;;;5031906;28;20183;-69
2022/07/26 03:06:18;;;;;;;2.43;1.90;;;22.60;99.90;;;;;;5031360;28;20627;-69
2022/07/26 03:08:44;;;;;;;2.30;1.90;;;22.60;99.90;;;;;;5025238;28;20272;-69
2022/07/26 03:11:09;;;;;;;2.20;2.10;;;22.40;99.90;;;;;;5023835;28;20575;-69
2022/07/26 03:13:35;;;;;;;2.30;2.20;;;22.40;99.90;;;;;;5033559;28;20182;-69
2022/07/26 03:16:01;;;;;;;1.80;1.70;;;22.40;99.90;;;;;;5024350;28;20190;-69
2022/07/26 03:18:26;;;;;;;2.23;1.93;;;22.50;99.90;;;;;;5030997;28;20535;-69
2022/07/26 03:20:52;;;;;;;2.20;2.10;;;22.40;99.90;;;;;;5020871;28;20572;-69
2022/07/26 03:23:18;;;;;;;2.03;1.93;;;22.40;99.90;;;;;;5027153;28;20179;-69
2022/07/26 03:25:43;;;;;;;2.27;2.07;;;22.30;99.90;;;;;;5023334;28;20442;-69
2022/07/26 03:28:09;;;;;;;2.40;2.20;;;22.30;99.90;;;;;;5029374;28;20191;-69
2022/07/26 03:30:34;;;;;;;2.47;2.00;;;22.20;99.90;;;;;;5031509;28;20244;-70
2022/07/26 03:33:00;;;;;;;2.70;2.50;;;22.10;99.90;;;;;;5025209;28;20257;-70
2022/07/26 03:35:26;;;;;;;3.17;2.00;;;22.00;99.90;;;;;;5029081;28;20595;-69
2022/07/26 03:37:52;;;;;;;2.50;2.30;;;22.00;99.90;;;;;;5025801;28;20908;-69
2022/07/26 03:40:18;;;;;;;2.60;2.40;;;22.00;99.90;;;;;;5025588;28;20312;-69
2022/07/26 03:42:45;;;;;;;2.20;2.10;;;21.90;99.90;;;;;;5031335;28;20628;-70
2022/07/26 03:45:11;;;;;;;2.23;2.13;;;21.90;99.90;;;;;;5027007;28;20448;-70
2022/07/26 03:47:36;;;;;;;2.97;2.77;;;21.90;99.90;;;;;;5025755;28;21685;-70
2022/07/26 03:50:06;;;;;;;2.83;2.13;;;21.90;99.90;;;;;;5023616;28;20534;-69
2022/07/26 03:52:32;;;;;;;2.30;2.10;;;21.90;99.90;;;;;;5031239;28;20210;-69
2022/07/26 03:54:57;;;;;;;2.27;2.10;;;21.80;99.90;;;;;;5029643;28;20496;-70
2022/07/26 03:57:23;;;;;;;3.07;2.10;;;21.90;99.90;;;;;;5030474;28;20177;-70
2022/07/26 03:59:49;;;;;;;4.10;2.50;;;22.30;99.90;;;;;;5025165;28;20281;-70
2022/07/26 04:02:14;;;;;;;3.60;2.90;;;21.60;99.90;;;;;;5029266;28;20216;-70
2022/07/26 04:04:40;;;;;;;2.23;2.13;;;21.50;99.90;;;;;;5029914;28;20678;-70
2022/07/26 04:07:06;;;;;;;2.47;2.27;;;21.50;99.90;;;;;;5028010;28;20212;-70
2022/07/26 04:09:31;;;;;;;6.40;3.33;;;21.50;99.90;;;;;;5024776;28;20255;-70
2022/07/26 04:11:57;;;;;;;3.17;2.97;;;21.50;99.90;;;;;;5031543;28;20433;-70
2022/07/26 04:14:22;;;;;;;3.77;3.00;;;21.40;99.90;;;;;;5029917;28;20201;-70
2022/07/26 04:16:48;;;;;;;4.60;2.93;;;21.40;99.90;;;;;;5029634;28;20579;-70
2022/07/26 04:19:13;;;;;;;3.27;2.97;;;21.30;99.90;;;;;;5024573;28;20250;-70
2022/07/26 04:21:39;;;;;;;2.90;2.70;;;21.30;99.90;;;;;;5030396;28;20178;-70
2022/07/26 04:24:05;;;;;;;3.33;3.13;;;21.30;99.90;;;;;;5021847;28;20218;-70
2022/07/26 04:26:31;;;;;;;2.97;2.77;;;21.30;99.90;;;;;;5029833;28;20182;-69
2022/07/26 04:28:56;;;;;;;3.23;2.70;;;21.30;99.90;;;;;;5023368;28;20492;-69
2022/07/26 04:31:22;;;;;;;3.83;3.53;;;21.30;99.90;;;;;;5016449;28;20200;-69
2022/07/26 04:33:48;;;;;;;3.00;2.73;;;21.30;99.90;;;;;;5038060;28;20237;-70
2022/07/26 04:36:14;;;;;;;3.70;2.90;;;21.30;99.90;;;;;;5038569;28;20175;-69
2022/07/26 04:38:40;;;;;;;8.63;3.27;;;21.40;99.90;;;;;;5029548;28;20595;-69
2022/07/26 04:41:06;;;;;;;3.73;2.80;;;21.20;99.90;;;;;;5031072;28;20175;-69
2022/07/26 04:43:31;;;;;;;4.77;3.40;;;21.10;99.90;;;;;;5030903;28;20429;-69
2022/07/26 04:45:57;;;;;;;3.20;3.00;;;21.10;99.90;;;;;;5031950;28;20598;-69
2022/07/26 04:48:23;;;;;;;3.10;2.90;;;21.20;99.90;;;;;;5029289;28;20690;-69
2022/07/26 04:50:49;;;;;;;2.90;2.70;;;21.30;99.90;;;;;;5022100;28;20659;-69
2022/07/26 04:53:14;;;;;;;4.10;2.77;;;21.30;99.90;;;;;;5030268;28;20456;-69
2022/07/26 04:55:41;;;;;;;2.70;2.50;;;21.30;99.90;;;;;;5032375;28;20210;-69
2022/07/26 04:58:07;;;;;;;3.80;3.50;;;21.40;99.90;;;;;;5037433;28;20519;-69
2022/07/26 05:00:33;;;;;;;3.20;3.00;;;21.50;99.90;;;;;;5037222;28;20665;-69
2022/07/26 05:03:00;;;;;;;2.97;2.77;;;21.50;99.90;;;;;;5039488;28;20531;-70
2022/07/26 05:05:28;;;;;;;3.60;2.60;;;21.50;99.90;;;;;;5034058;28;20185;-70
2022/07/26 05:07:56;;;;;;;3.07;2.87;;;21.50;99.90;;;;;;5024583;28;20451;-69
2022/07/26 05:10:29;;;;;;;3.00;2.80;;;21.40;99.90;;;;;;5038779;28;20510;-69
2022/07/26 05:12:55;;;;;;;3.93;2.70;;;21.40;99.90;;;;;;5034912;28;20444;-70
2022/07/26 05:15:20;;;;;;;3.40;3.10;;;21.60;99.90;;;;;;5041576;28;20810;-70
2022/07/26 05:17:46;;;;;;;4.67;3.20;;;21.70;99.90;;;;;;5036697;28;20178;-70
2022/07/26 05:20:15;;;;;;;3.30;3.10;;;21.90;99.90;;;;;;5037628;28;20190;-69
2022/07/26 05:22:40;;;;;;;3.20;3.00;;;22.00;99.90;;;;;;5042386;28;20173;-70
2022/07/26 05:25:07;;;;;;;2.67;2.47;;;21.90;99.90;;;;;;5008787;28;20429;-70
2022/07/26 05:27:32;;;;;;;6.33;3.40;;;21.90;99.90;;;;;;5025674;28;20189;-69
2022/07/26 05:29:58;;;;;;;3.83;3.53;;;21.80;99.90;;;;;;5011681;28;20461;-70
2022/07/26 05:32:23;;;;;;;3.60;3.30;;;21.80;99.90;;;;;;5027854;28;20186;-70
2022/07/26 05:34:49;;;;;;;3.70;3.47;;;21.90;99.90;;;;;;5028440;28;20686;-69
2022/07/26 05:37:15;;;;;;;3.80;3.27;;;21.90;99.90;;;;;;5027847;28;20178;-70
2022/07/26 05:39:40;;;;;;;4.13;3.73;;;22.00;99.90;;;;;;5039489;28;20198;-69
2022/07/26 05:42:06;;;;;;;4.30;3.87;;;22.00;99.90;;;;;;5040217;28;20554;-72
2022/07/26 05:44:32;;;;;;;4.53;4.23;;;21.90;99.90;;;;;;5034161;28;20188;-72
2022/07/26 05:46:57;;;;;;;4.60;3.67;;;21.70;99.90;;;;;;5034709;28;20190;-72
2022/07/26 05:49:24;;;;;;;3.60;3.30;;;21.70;99.90;;;;;;5015766;28;20197;-67
2022/07/26 05:51:50;;;;;;;4.33;4.03;;;21.70;99.90;;;;;;5030353;28;20640;-68
2022/07/26 05:54:17;;;;;;;3.93;3.73;;;21.50;99.90;;;;;;5028985;28;20470;-68
2022/07/26 05:56:43;;;;;;;4.13;3.73;;;21.60;99.90;;;;;;5036787;28;20170;-68
2022/07/26 05:59:08;;;;;;;4.63;4.13;;;21.90;99.90;;;;;;5031558;28;20833;-68
2022/07/26 06:01:34;;;;;;;4.77;4.37;;;22.30;99.90;;;;;;5043769;28;20177;-68
2022/07/26 06:04:00;;;;;;;5.00;4.60;;;22.40;99.90;;;;;;5029923;28;20709;-68
2022/07/26 06:06:25;;;;;;;4.93;3.60;;;22.60;99.90;;;;;;5032790;28;20547;-68
2022/07/26 06:08:51;;;;;;;4.27;3.90;;;22.90;99.90;;;;;;5040506;28;20312;-68
2022/07/26 06:11:17;;;;;;;8.47;3.70;;;23.10;99.90;;;;;;5046785;28;20300;-68
2022/07/26 06:13:42;;;;;;;3.63;3.33;;;23.10;99.90;;;;;;5046366;28;20554;-68
2022/07/26 06:16:08;;;;;;;3.83;3.53;;;23.30;99.90;;;;;;5040952;28;20185;-68
2022/07/26 06:18:33;;;;;;;3.83;3.50;;;23.40;99.90;;;;;;5041319;28;20670;-68
2022/07/26 06:20:59;;;;;;;4.33;3.53;;;23.60;99.90;;;;;;5035105;28;20675;-68
2022/07/26 06:23:24;;;;;;;3.60;3.30;;;23.40;99.90;;;;;;5030595;28;20206;-68
2022/07/26 06:25:50;;;;;;;2.97;2.77;;;23.60;99.90;;;;;;5030634;28;20326;-68
2022/07/26 06:28:16;;;;;;;3.23;2.93;;;23.70;99.90;;;;;;5026586;28;20766;-71
2022/07/26 06:30:43;;;;;;;2.80;2.60;;;23.90;99.90;;;;;;5008548;28;20221;-72
2022/07/26 06:33:08;;;;;;;6.10;2.80;;;23.90;99.90;;;;;;5022274;28;20198;-70
2022/07/26 06:35:35;;;;;;;3.23;2.90;;;24.00;99.90;;;;;;5035125;28;20458;-70
2022/07/26 06:38:02;;;;;;;5.63;2.27;;;24.10;99.90;;;;;;5034724;28;20823;-70
2022/07/26 06:40:27;;;;;;;4.90;2.50;;;24.20;99.90;;;;;;5024684;28;20448;-71
2022/07/26 06:42:53;;;;;;;4.10;2.50;;;24.20;99.90;;;;;;5029160;28;20815;-69
2022/07/26 06:45:18;;;;;;;4.60;2.80;;;24.40;99.90;;;;;;5031867;28;20727;-70
2022/07/26 06:47:44;;;;;;;2.50;2.33;;;24.30;99.80;;;;;;5030250;28;20255;-70
2022/07/26 06:50:10;;;;;;;3.33;2.70;;;24.80;99.20;;;;;;5025029;28;20683;-69
2022/07/26 06:52:35;;;;;;;6.20;2.40;;;24.80;97.90;;;;;;5028910;28;20178;-70
2022/07/26 06:55:02;;;;;;;1.90;1.80;;;25.00;97.50;;;;;;5031136;28;20469;-71
2022/07/26 06:57:29;;;;;;;3.40;1.90;;;25.30;97.00;;;;;;5024811;28;20170;-69
2022/07/26 06:59:54;;;;;;;4.97;2.60;;;25.50;96.20;;;;;;5024411;28;20457;-68
2022/07/26 07:02:20;;;;;;;3.00;2.17;;;25.60;95.20;;;;;;5026924;28;20444;-71
2022/07/26 07:04:45;;;;;;;3.70;1.90;;;25.70;94.00;;;;;;5033914;28;20684;-70
2022/07/26 07:07:11;;;;;;;3.10;1.90;;;26.00;93.20;;;;;;5009085;28;20200;-70
2022/07/26 07:09:37;;;;;;;1.97;1.87;;;25.90;93.20;;;;;;5026448;28;20198;-70
2022/07/26 07:12:04;;;;;;;5.80;2.10;;;25.90;93.30;;;;;;5028792;28;20237;-71
2022/07/26 07:14:29;;;;;;;3.77;2.10;;;26.10;92.40;;;;;;5034948;28;20237;-69
2022/07/26 07:16:55;;;;;;;2.67;1.80;;;26.20;91.00;;;;;;5035856;28;20464;-70
2022/07/26 07:19:21;;;;;;;1.90;1.40;;;26.20;90.50;;;;;;5039417;28;20588;-69
2022/07/26 07:21:47;;;;;;;2.07;1.80;;;26.30;89.60;;;;;;5032500;28;20174;-69
2022/07/26 07:24:12;;;;;;;4.20;1.93;;;26.60;88.40;;;;;;5043588;28;20511;-70
2022/07/26 07:26:39;;;;;;;2.80;2.00;;;26.50;87.30;;;;;;5030290;28;20521;-70
2022/07/26 07:29:05;;;;;;;3.30;1.50;;;27.00;86.30;;;;;;5028446;28;20246;-70
2022/07/26 07:31:30;;;;;;;2.00;1.87;;;27.40;85.20;;;;;;5025558;28;20879;-69
2022/07/26 07:33:56;;;;;;;3.60;1.50;;;27.60;82.30;;;;;;5028538;28;20521;-70
2022/07/26 07:36:22;;;;;;;2.00;1.90;;;27.10;83.10;;;;;;5032707;28;20186;-71
2022/07/26 07:38:48;;;;;;;2.17;1.30;;;27.20;82.20;;;;;;5027957;28;20444;-69
2022/07/26 07:41:14;;;;;;;2.10;1.80;;;27.40;81.10;;;;;;5034592;28;20186;-70
2022/07/26 07:43:39;;;;;;;1.83;1.63;;;27.50;79.20;;;;;;5028733;28;20429;-70
2022/07/26 07:46:05;;;;;;;2.93;1.83;;;27.40;78.00;;;;;;5032628;28;20195;-69
2022/07/26 07:48:31;;;;;;;1.93;1.73;;;27.40;77.50;;;;;;5043471;28;20182;-70
2022/07/26 07:50:56;;;;;;;3.03;2.37;;;27.60;77.60;;;;;;5027889;28;20205;-70
2022/07/26 07:53:22;;;;;;;3.60;2.10;;;28.00;76.50;;;;;;5029593;28;20197;-70
2022/07/26 07:55:47;;;;;;;4.53;1.90;;;28.40;74.20;;;;;;5029437;28;20285;-70
2022/07/26 07:58:18;;;;;;;2.57;1.73;;;28.80;73.10;;;;;;5027501;28;20188;-69
2022/07/26 08:00:43;;;;;;;2.77;1.77;;;28.70;71.10;;;;;;5025089;28;20204;-70
2022/07/26 08:03:09;;;;;;;3.97;2.37;;;28.80;70.90;;;;;;5026848;28;20429;-70
2022/07/26 08:05:35;;;;;;;5.10;1.70;;;29.00;69.50;;;;;;5034662;28;20189;-70
2022/07/26 08:08:02;;;;;;;3.67;2.33;;;28.90;68.50;;;;;;5029642;28;20267;-70
2022/07/26 08:10:28;;;;;;;4.03;1.57;;;28.70;68.10;;;;;;5027829;28;20263;-70
2022/07/26 08:12:53;;;;;;;4.43;1.70;;;28.90;67.90;;;;;;5018646;28;20784;-69
2022/07/26 08:15:20;;;;;;;2.33;1.60;;;29.10;67.20;;;;;;5022926;28;20468;-70
2022/07/26 08:17:46;;;;;;;2.57;1.57;;;29.20;66.30;;;;;;5024328;28;20174;-70
2022/07/26 08:20:11;;;;;;;2.17;1.57;;;28.90;66.10;;;;;;5020896;28;20464;-70
2022/07/26 08:22:37;;;;;;;2.60;2.00;;;28.70;67.00;;;;;;5022080;28;20200;-71
2022/07/26 08:25:03;;;;;;;1.77;1.57;;;28.80;67.10;;;;;;5024429;28;21121;-70
2022/07/26 08:27:28;;;;;;;4.43;2.00;;;29.00;65.50;;;;;;5024835;28;20178;-70
2022/07/26 08:29:54;;;;;;;1.90;1.20;;;29.00;65.20;;;;;;5013298;28;20537;-69
2022/07/26 08:32:19;;;;;;;4.03;2.00;;;29.40;64.50;;;;;;5027042;28;20189;-69
2022/07/26 08:34:45;;;;;;;1.80;1.70;;;29.80;63.40;;;;;;5025703;28;20796;-69
2022/07/26 08:37:10;;;;;;;4.17;1.90;;;30.40;61.70;;;;;;5037232;28;20280;-69
2022/07/26 08:39:36;;;;;;;6.83;2.10;;;30.90;60.90;;;;;;5032445;28;20190;-69
2022/07/26 08:42:03;;;;;;;1.83;1.70;;;30.50;60.70;;;;;;5027750;28;20194;-69
2022/07/26 08:44:28;;;;;;;6.73;2.20;;;30.70;60.20;;;;;;5029100;28;20190;-68
2022/07/26 08:46:54;;;;;;;2.30;2.10;;;30.40;58.90;;;;;;5026131;28;20435;-68
2022/07/26 08:49:20;;;;;;;2.50;2.30;;;29.90;59.40;;;;;;5024725;28;20237;-68
2022/07/26 08:51:46;;;;;;;2.47;2.27;;;29.00;60.50;;;;;;5028140;28;20174;-70
2022/07/26 08:54:13;;;;;;;3.00;1.60;;;28.40;60.90;;;;;;5029378;28;20464;-70
2022/07/26 08:56:50;;;;;;;1.67;1.57;;;28.50;62.00;;;;;;5029622;28;20220;-69
2022/07/26 08:59:17;;;;;;;1.93;1.60;;;29.20;59.80;;;;;;5025412;28;20452;-69
2022/07/26 09:01:54;;;;;;;1.83;1.70;;;29.50;59.90;;;;;;5023171;28;20488;-69
2022/07/26 09:04:23;;;;;;;4.30;1.70;;;30.50;58.30;;;;;;5031638;28;20518;-68
2022/07/26 09:07:01;;;;;;;3.00;1.87;;;30.70;57.60;;;;;;5027137;28;20591;-69
2022/07/26 09:09:27;;;;;;;5.90;1.87;;;29.30;58.10;;;;;;5028821;28;20462;-69
2022/07/26 09:11:54;;;;;;;1.57;1.33;;;29.50;58.80;;;;;;5031163;28;20441;-69
2022/07/26 09:14:20;;;;;;;1.80;1.70;;;30.20;57.50;;;;;;5027842;28;20519;-68
2022/07/26 09:16:57;;;;;;;2.17;2.00;;;30.30;56.30;;;;;;5026675;28;21023;-70
2022/07/26 09:19:23;;;;;;;3.87;2.00;;;30.50;56.50;;;;;;5019670;28;20276;-69
2022/07/26 09:21:50;;;;;;;3.17;1.90;;;30.00;57.10;;;;;;5027816;28;20519;-69
2022/07/26 09:24:33;;;;;;;1.53;1.40;;;29.90;57.50;;;;;;5024124;28;20193;-68
2022/07/26 09:27:00;;;;;;;1.87;1.70;;;30.30;56.70;;;;;;5033077;28;20520;-69
2022/07/26 09:29:27;;;;;;;1.87;1.77;;;30.50;55.70;;;;;;5050157;22;20982;-67
2022/07/26 09:32:12;;;;;;;6.17;1.67;;;31.20;55.50;;;;;;5026901;28;20444;-67
2022/07/26 09:34:39;;;;;;;2.10;1.67;;;31.20;54.90;;;;;;5027574;28;20840;-67
2022/07/26 09:37:04;;;;;;;3.20;1.97;;;30.60;55.00;;;;;;5028220;28;20448;-67
2022/07/26 09:39:30;;;;;;;1.63;1.53;;;30.50;55.30;;;;;;5021876;28;20436;-68
2022/07/26 09:41:55;;;;;;;1.60;1.50;;;30.80;55.20;;;;;;5003680;28;20191;-68
2022/07/26 09:44:24;;;;;;;2.10;1.67;;;31.50;54.30;;;;;;5002644;28;20253;-67
2022/07/26 09:46:57;;;;;;;1.83;1.70;;;31.00;54.00;;;;;;5004077;28;20190;-67
2022/07/26 09:49:25;;;;;;;2.53;2.33;;;30.30;54.30;;;;;;5007918;28;20486;-67
2022/07/26 09:51:52;;;;;;;2.17;1.90;;;30.30;54.50;;;;;;5015323;28;20504;-67
2022/07/26 09:54:27;;;;;;;7.83;1.87;;;29.90;55.00;;;;;;5008770;28;20457;-67
2022/07/26 09:56:53;;;;;;;4.23;1.50;;;29.50;54.90;;;;;;5009090;28;20953;-67
2022/07/26 09:59:21;;;;;;;3.17;1.90;;;29.20;54.80;;;;;;5006166;28;20585;-67
2022/07/26 10:01:48;;;;;;;2.37;1.60;;;29.50;54.60;;;;;;5013021;28;20647;-67
2022/07/26 10:04:14;;;;;;;2.37;1.70;;;28.90;55.20;;;;;;5002685;28;20487;-67
2022/07/26 10:06:40;;;;;;;2.00;1.80;;;28.80;56.00;;;;;;5004398;28;20441;-67
2022/07/26 10:09:07;;;;;;;6.43;4.70;;;28.60;56.30;;;;;;5008550;28;20448;-67
2022/07/26 10:11:46;;;;;;;3.13;2.00;;;28.70;56.00;;;;;;5006874;28;20462;-67
2022/07/26 10:14:46;;;;;;;1.70;1.60;;;28.30;56.30;;;;;;5006286;28;20961;-67
2022/07/26 10:17:32;;;;;;;1.90;1.60;;;29.50;55.70;;;;;;5004947;28;20441;-68
2022/07/26 10:20:06;;;;;;;2.03;1.83;;;30.30;55.70;;;;;;5011282;28;20467;-67
2022/07/26 10:22:40;;;;;;;2.50;1.60;;;31.70;54.40;;;;;;5006675;28;20942;-68
2022/07/26 10:25:26;;;;;;;7.47;2.80;;;33.10;51.70;;;;;;5008402;28;20862;-67
2022/07/26 10:27:56;;;;;;;2.20;1.67;;;33.90;50.20;;;;;;5002447;28;20433;-68
2022/07/26 10:30:24;;;;;;;2.47;1.80;;;33.00;50.40;;;;;;5010031;28;20481;-67
2022/07/26 10:32:49;;;;;;;2.73;1.90;;;33.30;50.40;;;;;;5008385;28;20459;-67
2022/07/26 10:35:28;;;;;;;3.03;1.73;;;32.50;50.40;;;;;;5011960;28;20832;-68
2022/07/26 10:38:08;;;;;;;1.87;1.77;;;33.00;50.80;;;;;;5009365;28;20183;-68
2022/07/26 10:40:35;;;;;;;2.20;1.50;;;32.80;49.40;;;;;;5017546;28;20512;-65
2022/07/26 10:43:12;;;;;;;3.90;1.53;;;32.40;49.60;;;;;;5006630;28;20860;-65
2022/07/26 10:45:38;;;;;;;1.40;1.30;;;33.20;48.20;;;;;;5004708;28;20433;-67
2022/07/26 10:48:21;;;;;;;1.80;1.53;;;34.60;46.70;;;;;;5008158;28;20429;-68
2022/07/26 10:50:50;;;;;;;2.30;1.43;;;34.50;46.90;;;;;;5015437;28;20230;-68
2022/07/26 10:53:24;;;;;;;2.50;1.80;;;35.60;45.70;;;;;;5003209;28;21032;-68
2022/07/26 10:55:55;;;;;;;1.97;1.83;;;35.10;45.70;;;;;;5001587;28;20497;-68
2022/07/26 10:58:23;;;;;;;2.40;2.10;;;34.30;46.40;;;;;;5000451;28;20447;-67
2022/07/26 11:01:03;;;;;;;1.60;1.50;;;32.90;47.60;;;;;;5009962;28;20453;-67
2022/07/26 11:03:36;;;;;;;2.60;1.50;;;32.50;47.60;;;;;;5000893;28;20910;-68
2022/07/26 11:06:09;;;;;;;1.57;1.47;;;33.20;45.80;;;;;;5001410;28;20435;-67
2022/07/26 11:08:35;;;;;;;1.70;1.60;;;32.30;47.80;;;;;;5008606;28;20433;-68
2022/07/26 11:11:00;;;;;;;1.90;1.80;;;31.80;47.90;;;;;;5016806;28;20449;-67
2022/07/26 11:13:27;;;;;;;3.33;2.00;;;31.40;48.30;;;;;;5005410;28;20183;-66
2022/07/26 11:16:04;;;;;;;2.17;1.97;;;31.10;49.40;;;;;;5009753;28;20574;-66
2022/07/26 11:18:34;;;;;;;1.50;1.40;;;31.50;49.60;;;;;;5011381;28;21023;-67
2022/07/26 11:21:11;;;;;;;2.03;1.87;;;33.90;46.60;;;;;;5009336;28;20454;-66
2022/07/26 11:23:43;;;;;;;2.10;1.63;;;33.90;46.00;;;;;;5003533;28;20441;-66
2022/07/26 11:26:11;;;;;;;2.60;1.43;;;33.00;46.30;;;;;;5009541;28;20441;-67
2022/07/26 11:28:46;;;;;;;2.30;1.60;;;32.20;47.90;;;;;;5010637;28;20434;-66
2022/07/26 11:31:13;;;;;;;1.93;1.70;;;34.00;46.80;;;;;;5006265;28;20557;-67
2022/07/26 11:33:41;;;;;;;1.77;1.40;;;36.00;44.50;;;;;;5002669;28;20450;-67
2022/07/26 11:36:07;;;;;;;1.83;1.20;;;37.80;42.70;;;;;;5008476;28;20559;-67
2022/07/26 11:38:53;;;;;;;3.53;2.03;;;39.60;40.20;;;;;;5009680;28;20526;-68
2022/07/26 11:41:24;;;;;;;3.10;1.77;;;39.70;38.30;;;;;;5009174;28;20458;-67
2022/07/26 11:43:51;;;;;;;1.50;1.40;;;40.00;37.60;;;;;;5011163;28;20437;-67
2022/07/26 11:46:17;;;;;;;1.30;1.30;;;40.50;36.30;;;;;;5006384;28;20491;-67
2022/07/26 11:48:52;;;;;;;2.30;1.57;;;40.80;35.10;;;;;;5008610;28;20786;-67
2022/07/26 11:51:20;;;;;;;2.20;2.07;;;39.30;35.90;;;;;;5010917;28;20448;-67
2022/07/26 11:53:47;;;;;;;4.20;1.70;;;39.10;35.10;;;;;;5005110;28;20910;-66
2022/07/26 11:56:19;;;;;;;1.50;1.40;;;39.70;35.30;;;;;;5010906;28;20825;-67
2022/07/26 11:58:47;;;;;;;1.67;1.57;;;38.80;34.70;;;;;;4995991;28;20449;-67
2022/07/26 12:01:16;;;;;;;1.93;1.83;;;38.40;34.10;;;;;;5001800;28;20470;-66
2022/07/26 12:03:44;;;;;;;2.03;1.93;;;39.00;34.30;;;;;;5010701;28;20529;-66
2022/07/26 12:06:16;;;;;;;1.70;1.60;;;39.90;33.80;;;;;;5006259;28;20441;-66
2022/07/26 12:08:47;;;;;;;1.97;1.70;;;40.50;34.00;;;;;;4999033;28;20898;-67
2022/07/26 12:11:13;;;;;;;4.37;1.63;;;41.50;33.10;;;;;;5007058;28;20466;-67
2022/07/26 12:13:55;;;;;;;1.87;1.77;;;40.10;32.90;;;;;;5001284;28;20473;-66
2022/07/26 12:16:41;;;;;;;2.53;2.33;;;38.20;33.70;;;;;;5004746;28;20532;-66
2022/07/26 12:19:16;;;;;;;2.10;2.00;;;37.20;34.80;;;;;;5005600;28;20429;-66
2022/07/26 12:21:47;;;;;;;2.50;1.53;;;36.80;35.50;;;;;;5006350;28;20516;-66
2022/07/26 12:24:33;;;;;;;2.20;1.50;;;38.50;35.90;;;;;;5008113;28;20435;-66
2022/07/26 12:27:15;;;;;;;1.93;1.83;;;39.30;33.10;;;;;;5004092;28;20470;-66
2022/07/26 12:29:45;;;;;;;2.27;2.00;;;39.70;32.60;;;;;;5021135;28;20489;-66
2022/07/26 12:32:16;;;;;;;1.57;1.30;;;39.50;32.60;;;;;;5001041;28;20940;-66
2022/07/26 12:35:01;;;;;;;1.00;1.00;;;38.70;32.60;;;;;;4999339;28;20520;-66
2022/07/26 12:37:29;;;;;;;1.37;1.27;;;37.90;33.50;;;;;;5006700;28;20477;-67
2022/07/26 12:40:08;;;;;;;1.80;1.60;;;37.20;33.70;;;;;;5003635;28;20485;-66
2022/07/26 12:42:43;;;;;;;1.70;1.60;;;36.40;34.10;;;;;;4997237;28;20429;-66
2022/07/26 12:45:10;;;;;;;1.83;1.50;;;34.70;35.40;;;;;;5003912;28;20519;-66
2022/07/26 12:47:38;;;;;;;1.73;1.40;;;35.20;35.90;;;;;;5007895;28;20881;-66
2022/07/26 12:50:06;;;;;;;2.53;1.57;;;37.00;34.60;;;;;;4999741;28;20458;-66